sensor_id;sensor_type;location;lat;lon;timestamp;pressure;altitude;pressure_sealevel;temperature;humidity
31005;BME280;17676;52.254;4.490;2023-03-14T00:00:56;98607.59;;;10.79;100.00
31005;BME280;17676;52.254;4.490;2023-03-14T00:03:21;98595.66;;;10.70;100.00
31005;BME280;17676;52.254;4.490;2023-03-14T00:05:47;98592.69;;;10.71;100.00
31005;BME280;17676;52.254;4.490;2023-03-14T00:08:12;98597.03;;;10.77;100.00
31005;BME280;17676;52.254;4.490;2023-03-14T00:10:39;98604.03;;;10.68;100.00
31005;BME280;17676;52.254;4.490;2023-03-14T00:13:05;98599.44;;;10.69;100.00
31005;BME280;17676;52.254;4.490;2023-03-14T00:15:33;98610.00;;;10.75;100.00
31005;BME280;17676;52.254;4.490;2023-03-14T00:17:59;98603.78;;;10.75;100.00
31005;BME280;17676;52.254;4.490;2023-03-14T00:20:24;98600.03;;;10.76;100.00
31005;BME280;17676;52.254;4.490;2023-03-14T00:22:50;98605.72;;;10.79;100.00
31005;BME280;17676;52.254;4.490;2023-03-14T00:25:15;98606.25;;;10.81;100.00
31005;BME280;17676;52.254;4.490;2023-03-14T00:27:41;98600.56;;;10.78;100.00
31005;BME280;17676;52.254;4.490;2023-03-14T00:30:11;98597.84;;;10.78;100.00
31005;BME280;17676;52.254;4.490;2023-03-14T00:32:37;98610.00;;;10.70;100.00
31005;BME280;17676;52.254;4.490;2023-03-14T00:35:03;98605.09;;;10.62;100.00
31005;BME280;17676;52.254;4.490;2023-03-14T00:37:28;98628.06;;;10.60;100.00
31005;BME280;17676;52.254;4.490;2023-03-14T00:39:54;98622.19;;;10.73;100.00
31005;BME280;17676;52.254;4.490;2023-03-14T00:42:19;98633.25;;;10.71;100.00
31005;BME280;17676;52.254;4.490;2023-03-14T00:44:45;98623.19;;;10.57;100.00
31005;BME280;17676;52.254;4.490;2023-03-14T00:47:11;98621.28;;;10.57;100.00
31005;BME280;17676;52.254;4.490;2023-03-14T00:49:37;98615.25;;;10.45;100.00
31005;BME280;17676;52.254;4.490;2023-03-14T00:52:03;98615.31;;;10.50;100.00
31005;BME280;17676;52.254;4.490;2023-03-14T00:54:29;98608.22;;;10.44;100.00
31005;BME280;17676;52.254;4.490;2023-03-14T00:56:55;98618.25;;;10.44;100.00
31005;BME280;17676;52.254;4.490;2023-03-14T00:59:20;98622.75;;;10.33;100.00
31005;BME280;17676;52.254;4.490;2023-03-14T01:01:45;98624.91;;;10.31;100.00
31005;BME280;17676;52.254;4.490;2023-03-14T01:04:11;98623.53;;;10.24;100.00
31005;BME280;17676;52.254;4.490;2023-03-14T01:06:36;98644.94;;;10.30;100.00
31005;BME280;17676;52.254;4.490;2023-03-14T01:09:02;98637.34;;;10.32;100.00
31005;BME280;17676;52.254;4.490;2023-03-14T01:11:30;98647.31;;;10.27;100.00
31005;BME280;17676;52.254;4.490;2023-03-14T01:13:56;98651.06;;;10.21;100.00
31005;BME280;17676;52.254;4.490;2023-03-14T01:16:24;98647.84;;;10.24;100.00
31005;BME280;17676;52.254;4.490;2023-03-14T01:18:50;98657.84;;;10.23;100.00
31005;BME280;17676;52.254;4.490;2023-03-14T01:21:18;98656.75;;;10.24;100.00
31005;BME280;17676;52.254;4.490;2023-03-14T01:23:45;98639.97;;;10.17;100.00
31005;BME280;17676;52.254;4.490;2023-03-14T01:26:12;98628.63;;;10.20;100.00
31005;BME280;17676;52.254;4.490;2023-03-14T01:28:38;98646.75;;;10.20;100.00
31005;BME280;17676;52.254;4.490;2023-03-14T01:31:08;98640.50;;;10.19;100.00
31005;BME280;17676;52.254;4.490;2023-03-14T01:33:35;98648.88;;;10.18;100.00
31005;BME280;17676;52.254;4.490;2023-03-14T01:36:00;98652.91;;;10.15;100.00
31005;BME280;17676;52.254;4.490;2023-03-14T01:38:30;98639.44;;;10.20;100.00
31005;BME280;17676;52.254;4.490;2023-03-14T01:40:56;98659.19;;;10.21;100.00
31005;BME280;17676;52.254;4.490;2023-03-14T01:43:22;98652.41;;;10.18;100.00
31005;BME280;17676;52.254;4.490;2023-03-14T01:46:16;98660.03;;;10.26;100.00
31005;BME280;17676;52.254;4.490;2023-03-14T01:48:48;98665.19;;;10.28;100.00
31005;BME280;17676;52.254;4.490;2023-03-14T01:53:51;98653.06;;;10.35;100.00
31005;BME280;17676;52.254;4.490;2023-03-14T01:56:18;98659.28;;;10.36;100.00
31005;BME280;17676;52.254;4.490;2023-03-14T01:58:47;98652.22;;;10.35;100.00
31005;BME280;17676;52.254;4.490;2023-03-14T02:01:18;98644.94;;;10.30;100.00
31005;BME280;17676;52.254;4.490;2023-03-14T02:03:50;98632.53;;;10.39;100.00
31005;BME280;17676;52.254;4.490;2023-03-14T02:06:19;98626.06;;;10.45;100.00
31005;BME280;17676;52.254;4.490;2023-03-14T02:08:46;98627.72;;;10.46;100.00
31005;BME280;17676;52.254;4.490;2023-03-14T02:11:15;98629.84;;;10.44;100.00
31005;BME280;17676;52.254;4.490;2023-03-14T02:13:42;98613.13;;;10.47;100.00
31005;BME280;17676;52.254;4.490;2023-03-14T02:16:08;98622.31;;;10.46;100.00
31005;BME280;17676;52.254;4.490;2023-03-14T02:18:34;98641.84;;;10.58;100.00
31005;BME280;17676;52.254;4.490;2023-03-14T02:21:09;98625.63;;;10.58;100.00
31005;BME280;17676;52.254;4.490;2023-03-14T02:24:00;98613.16;;;10.57;100.00
31005;BME280;17676;52.254;4.490;2023-03-14T02:28:59;98609.75;;;10.72;100.00
31005;BME280;17676;52.254;4.490;2023-03-14T02:31:24;98607.00;;;10.67;100.00
31005;BME280;17676;52.254;4.490;2023-03-14T02:33:50;98609.75;;;10.72;100.00
31005;BME280;17676;52.254;4.490;2023-03-14T02:36:19;98615.44;;;10.75;100.00
31005;BME280;17676;52.254;4.490;2023-03-14T02:38:55;98605.72;;;10.79;100.00
31005;BME280;17676;52.254;4.490;2023-03-14T02:41:23;98587.28;;;10.76;100.00
31005;BME280;17676;52.254;4.490;2023-03-14T02:43:48;98596.50;;;10.80;100.00
31005;BME280;17676;52.254;4.490;2023-03-14T02:46:17;98589.75;;;10.83;100.00
31005;BME280;17676;52.254;4.490;2023-03-14T02:48:50;98582.72;;;10.82;100.00
31005;BME280;17676;52.254;4.490;2023-03-14T02:51:17;98585.69;;;10.85;100.00
31005;BME280;17676;52.254;4.490;2023-03-14T02:53:44;98588.41;;;10.85;100.00
31005;BME280;17676;52.254;4.490;2023-03-14T02:56:10;98571.91;;;10.92;100.00
31005;BME280;17676;52.254;4.490;2023-03-14T02:58:36;98584.13;;;10.99;100.00
31005;BME280;17676;52.254;4.490;2023-03-14T03:01:02;98572.78;;;11.02;100.00
31005;BME280;17676;52.254;4.490;2023-03-14T03:03:27;98566.28;;;10.98;100.00
31005;BME280;17676;52.254;4.490;2023-03-14T03:05:54;98568.41;;;10.96;100.00
31005;BME280;17676;52.254;4.490;2023-03-14T03:08:21;98574.66;;;10.97;100.00
31005;BME280;17676;52.254;4.490;2023-03-14T03:10:48;98574.41;;;10.98;100.00
31005;BME280;17676;52.254;4.490;2023-03-14T03:13:13;98563.56;;;10.98;100.00
31005;BME280;17676;52.254;4.490;2023-03-14T03:15:39;98558.94;;;10.94;100.00
31005;BME280;17676;52.254;4.490;2023-03-14T03:18:05;98565.19;;;10.94;100.00
31005;BME280;17676;52.254;4.490;2023-03-14T03:20:31;98555.16;;;11.00;100.00
31005;BME280;17676;52.254;4.490;2023-03-14T03:22:56;98540.84;;;11.04;100.00
31005;BME280;17676;52.254;4.490;2023-03-14T03:25:23;98557.63;;;11.06;100.00
31005;BME280;17676;52.254;4.490;2023-03-14T03:27:48;98539.19;;;10.93;100.00
31005;BME280;17676;52.254;4.490;2023-03-14T03:30:14;98531.63;;;11.00;100.00
31005;BME280;17676;52.254;4.490;2023-03-14T03:32:39;98538.38;;;10.98;100.00
31005;BME280;17676;52.254;4.490;2023-03-14T03:35:05;98544.88;;;10.97;100.00
31005;BME280;17676;52.254;4.490;2023-03-14T03:37:32;98565.75;;;11.11;100.00
31005;BME280;17676;52.254;4.490;2023-03-14T03:39:58;98551.13;;;11.02;100.00
31005;BME280;17676;52.254;4.490;2023-03-14T03:42:23;98532.72;;;10.94;100.00
31005;BME280;17676;52.254;4.490;2023-03-14T03:44:49;98551.66;;;11.04;100.00
31005;BME280;17676;52.254;4.490;2023-03-14T03:47:15;98563.31;;;11.10;100.00
31005;BME280;17676;52.254;4.490;2023-03-14T03:49:40;98559.53;;;11.11;100.00
31005;BME280;17676;52.254;4.490;2023-03-14T03:52:06;98567.91;;;10.99;100.00
31005;BME280;17676;52.254;4.490;2023-03-14T03:54:31;98561.34;;;10.80;100.00
31005;BME280;17676;52.254;4.490;2023-03-14T03:56:57;98568.88;;;10.73;100.00
31005;BME280;17676;52.254;4.490;2023-03-14T03:59:22;98580.19;;;10.65;100.00
31005;BME280;17676;52.254;4.490;2023-03-14T04:01:48;98567.72;;;10.54;100.00
31005;BME280;17676;52.254;4.490;2023-03-14T04:04:13;98574.63;;;10.30;100.00
31005;BME280;17676;52.254;4.490;2023-03-14T04:06:39;98587.59;;;10.28;100.00
31005;BME280;17676;52.254;4.490;2023-03-14T04:09:07;98598.88;;;10.15;100.00
31005;BME280;17676;52.254;4.490;2023-03-14T04:11:33;98598.84;;;10.10;100.00
31005;BME280;17676;52.254;4.490;2023-03-14T04:13:58;98619.28;;;10.01;100.00
31005;BME280;17676;52.254;4.490;2023-03-14T04:16:26;98617.38;;;10.01;100.00
31005;BME280;17676;52.254;4.490;2023-03-14T04:18:52;98616.59;;;10.01;100.00
31005;BME280;17676;52.254;4.490;2023-03-14T04:21:18;98614.91;;;9.95;100.00
31005;BME280;17676;52.254;4.490;2023-03-14T04:23:44;98613.78;;;9.91;100.00
31005;BME280;17676;52.254;4.490;2023-03-14T04:26:10;98627.31;;;9.91;100.00
31005;BME280;17676;52.254;4.490;2023-03-14T04:28:36;98648.66;;;9.92;100.00
31005;BME280;17676;52.254;4.490;2023-03-14T04:31:20;98637.03;;;9.92;100.00
31005;BME280;17676;52.254;4.490;2023-03-14T04:33:46;98635.34;;;9.81;100.00
31005;BME280;17676;52.254;4.490;2023-03-14T04:36:12;98631.59;;;9.87;100.00
31005;BME280;17676;52.254;4.490;2023-03-14T04:38:39;98639.16;;;9.85;100.00
31005;BME280;17676;52.254;4.490;2023-03-14T04:41:04;98637.25;;;9.85;100.00
31005;BME280;17676;52.254;4.490;2023-03-14T04:43:30;98655.66;;;9.88;100.00
31005;BME280;17676;52.254;4.490;2023-03-14T04:45:57;98653.78;;;9.89;100.00
31005;BME280;17676;52.254;4.490;2023-03-14T04:48:24;98654.28;;;9.86;100.00
31005;BME280;17676;52.254;4.490;2023-03-14T04:50:51;98671.59;;;9.90;100.00
31005;BME280;17676;52.254;4.490;2023-03-14T04:53:17;98661.31;;;9.87;86.33
31005;BME280;17676;52.254;4.490;2023-03-14T04:55:50;98672.31;;;9.80;76.51
31005;BME280;17676;52.254;4.490;2023-03-14T04:58:16;98669.91;;;9.84;64.45
31005;BME280;17676;52.254;4.490;2023-03-14T05:00:45;98672.81;;;9.77;58.74
31005;BME280;17676;52.254;4.490;2023-03-14T05:03:11;98694.22;;;9.84;53.32
31005;BME280;17676;52.254;4.490;2023-03-14T05:05:37;98693.63;;;9.77;50.04
31005;BME280;17676;52.254;4.490;2023-03-14T05:08:03;98683.84;;;9.71;47.75
31005;BME280;17676;52.254;4.490;2023-03-14T05:10:28;98703.81;;;9.70;45.52
31005;BME280;17676;52.254;4.490;2023-03-14T05:12:54;98702.13;;;9.64;43.68
31005;BME280;17676;52.254;4.490;2023-03-14T05:15:19;98700.16;;;9.54;42.26
31005;BME280;17676;52.254;4.490;2023-03-14T05:17:45;98716.53;;;9.48;40.74
31005;BME280;17676;52.254;4.490;2023-03-14T05:20:11;98727.19;;;9.33;39.80
31005;BME280;17676;52.254;4.490;2023-03-14T05:22:38;98735.06;;;8.96;40.04
31005;BME280;17676;52.254;4.490;2023-03-14T05:25:04;98760.34;;;8.90;40.08
31005;BME280;17676;52.254;4.490;2023-03-14T05:27:30;98768.53;;;8.79;40.06
31005;BME280;17676;52.254;4.490;2023-03-14T05:29:55;98767.50;;;8.80;39.84
31005;BME280;17676;52.254;4.490;2023-03-14T05:32:21;98792.91;;;8.84;39.67
31005;BME280;17676;52.254;4.490;2023-03-14T05:34:46;98784.22;;;8.65;39.65
31005;BME280;17676;52.254;4.490;2023-03-14T05:37:15;98805.00;;;8.65;39.46
31005;BME280;17676;52.254;4.490;2023-03-14T05:39:40;98805.91;;;8.70;38.98
31005;BME280;17676;52.254;4.490;2023-03-14T05:42:06;98806.69;;;8.71;38.97
31005;BME280;17676;52.254;4.490;2023-03-14T05:44:31;98815.19;;;8.63;38.89
31005;BME280;17676;52.254;4.490;2023-03-14T05:46:57;98824.44;;;8.67;38.79
31005;BME280;17676;52.254;4.490;2023-03-14T05:49:22;98815.19;;;8.63;38.83
31005;BME280;17676;52.254;4.490;2023-03-14T05:51:48;98824.84;;;8.59;38.88
31005;BME280;17676;52.254;4.490;2023-03-14T05:54:13;98835.38;;;8.60;38.79
31005;BME280;17676;52.254;4.490;2023-03-14T05:56:39;98862.00;;;8.73;38.64
31005;BME280;17676;52.254;4.490;2023-03-14T05:59:05;98846.31;;;8.54;38.88
31005;BME280;17676;52.254;4.490;2023-03-14T06:01:32;98862.09;;;8.62;38.87
31005;BME280;17676;52.254;4.490;2023-03-14T06:03:58;98873.69;;;8.46;39.26
31005;BME280;17676;52.254;4.490;2023-03-14T06:06:24;98869.69;;;8.48;39.32
31005;BME280;17676;52.254;4.490;2023-03-14T06:08:50;98873.19;;;8.49;39.42
31005;BME280;17676;52.254;4.490;2023-03-14T06:11:15;98883.97;;;8.49;39.56
31005;BME280;17676;52.254;4.490;2023-03-14T06:13:41;98889.19;;;8.39;39.95
31005;BME280;17676;52.254;4.490;2023-03-14T06:16:07;98890.84;;;8.40;40.04
31005;BME280;17676;52.254;4.490;2023-03-14T06:18:32;98907.09;;;8.45;40.22
31005;BME280;17676;52.254;4.490;2023-03-14T06:20:59;98895.94;;;8.41;40.36
31005;BME280;17676;52.254;4.490;2023-03-14T06:23:25;98908.56;;;8.52;40.39
31005;BME280;17676;52.254;4.490;2023-03-14T06:25:51;98908.63;;;8.41;40.74
31005;BME280;17676;52.254;4.490;2023-03-14T06:28:18;98907.19;;;8.50;40.69
31005;BME280;17676;52.254;4.490;2023-03-14T06:30:43;98928.03;;;8.71;40.79
31005;BME280;17676;52.254;4.490;2023-03-14T06:33:09;98919.63;;;8.67;41.08
31005;BME280;17676;52.254;4.490;2023-03-14T06:35:35;98926.63;;;8.52;42.02
31005;BME280;17676;52.254;4.490;2023-03-14T06:38:01;98922.72;;;8.59;42.23
31005;BME280;17676;52.254;4.490;2023-03-14T06:40:26;98935.13;;;8.60;42.97
31005;BME280;17676;52.254;4.490;2023-03-14T06:42:52;98954.91;;;8.66;43.30
31005;BME280;17676;52.254;4.490;2023-03-14T06:45:18;98964.47;;;8.73;43.94
31005;BME280;17676;52.254;4.490;2023-03-14T06:47:44;98961.78;;;8.73;44.33
31005;BME280;17676;52.254;4.490;2023-03-14T06:50:10;98978.63;;;8.64;45.60
31005;BME280;17676;52.254;4.490;2023-03-14T06:52:36;98978.41;;;8.54;46.33
31005;BME280;17676;52.254;4.490;2023-03-14T06:55:02;98980.81;;;8.39;47.73
31005;BME280;17676;52.254;4.490;2023-03-14T06:57:28;99004.91;;;8.57;48.17
31005;BME280;17676;52.254;4.490;2023-03-14T06:59:54;99007.84;;;8.55;48.01
31005;BME280;17676;52.254;4.490;2023-03-14T07:02:20;99015.00;;;8.50;49.38
31005;BME280;17676;52.254;4.490;2023-03-14T07:04:47;99042.38;;;8.30;55.72
31005;BME280;17676;52.254;4.490;2023-03-14T07:07:13;99037.22;;;8.29;57.64
31005;BME280;17676;52.254;4.490;2023-03-14T07:09:38;99050.19;;;8.20;60.32
31005;BME280;17676;52.254;4.490;2023-03-14T07:12:05;99090.16;;;7.77;67.99
31005;BME280;17676;52.254;4.490;2023-03-14T07:14:31;99078.78;;;7.64;68.89
31005;BME280;17676;52.254;4.490;2023-03-14T07:16:56;99107.56;;;7.52;71.64
31005;BME280;17676;52.254;4.490;2023-03-14T07:19:22;99105.53;;;7.36;73.12
31005;BME280;17676;52.254;4.490;2023-03-14T07:21:48;99120.28;;;7.33;75.18
31005;BME280;17676;52.254;4.490;2023-03-14T07:24:14;99126.22;;;7.24;78.22
31005;BME280;17676;52.254;4.490;2023-03-14T07:26:40;99137.88;;;7.18;80.00
31005;BME280;17676;52.254;4.490;2023-03-14T07:29:05;99136.56;;;7.09;84.59
31005;BME280;17676;52.254;4.490;2023-03-14T07:31:31;99137.88;;;7.18;96.94
31005;BME280;17676;52.254;4.490;2023-03-14T07:33:57;99152.72;;;7.20;100.00
31005;BME280;17676;52.254;4.490;2023-03-14T07:36:23;99158.19;;;7.14;100.00
31005;BME280;17676;52.254;4.490;2023-03-14T07:38:48;99183.63;;;7.00;100.00
31005;BME280;17676;52.254;4.490;2023-03-14T07:41:15;99195.84;;;6.84;100.00
31005;BME280;17676;52.254;4.490;2023-03-14T07:43:40;99211.13;;;6.84;100.00
31005;BME280;17676;52.254;4.490;2023-03-14T07:46:09;99204.47;;;6.86;100.00
31005;BME280;17676;52.254;4.490;2023-03-14T07:48:35;99225.53;;;7.07;100.00
31005;BME280;17676;52.254;4.490;2023-03-14T07:51:10;99225.16;;;7.04;100.00
31005;BME280;17676;52.254;4.490;2023-03-14T07:53:35;99263.84;;;7.21;100.00
31005;BME280;17676;52.254;4.490;2023-03-14T07:56:04;99262.34;;;7.25;100.00
31005;BME280;17676;52.254;4.490;2023-03-14T07:58:30;99242.78;;;7.00;100.00
31005;BME280;17676;52.254;4.490;2023-03-14T08:00:59;99280.28;;;7.13;100.00
31005;BME280;17676;52.254;4.490;2023-03-14T08:03:25;99281.63;;;7.04;100.00
31005;BME280;17676;52.254;4.490;2023-03-14T08:05:51;99291.03;;;6.77;100.00
31005;BME280;17676;52.254;4.490;2023-03-14T08:08:19;99292.91;;;6.52;100.00
31005;BME280;17676;52.254;4.490;2023-03-14T08:10:45;99287.97;;;6.73;100.00
31005;BME280;17676;52.254;4.490;2023-03-14T08:13:12;99297.84;;;6.97;100.00
31005;BME280;17676;52.254;4.490;2023-03-14T08:15:37;99295.81;;;7.29;100.00
31005;BME280;17676;52.254;4.490;2023-03-14T08:18:04;99291.09;;;7.24;100.00
31005;BME280;17676;52.254;4.490;2023-03-14T08:20:30;99294.03;;;7.41;100.00
31005;BME280;17676;52.254;4.490;2023-03-14T08:22:56;99286.56;;;7.43;100.00
31005;BME280;17676;52.254;4.490;2023-03-14T08:25:23;99297.25;;;7.49;100.00
31005;BME280;17676;52.254;4.490;2023-03-14T08:27:49;99306.28;;;7.37;100.00
31005;BME280;17676;52.254;4.490;2023-03-14T08:30:16;99313.16;;;7.51;100.00
31005;BME280;17676;52.254;4.490;2023-03-14T08:32:42;99309.19;;;7.53;100.00
31005;BME280;17676;52.254;4.490;2023-03-14T08:35:09;99308.00;;;7.79;100.00
31005;BME280;17676;52.254;4.490;2023-03-14T08:37:37;99313.25;;;8.33;100.00
31005;BME280;17676;52.254;4.490;2023-03-14T08:40:04;99310.81;;;8.43;100.00
31005;BME280;17676;52.254;4.490;2023-03-14T08:42:35;99319.16;;;8.12;100.00
31005;BME280;17676;52.254;4.490;2023-03-14T08:45:01;99325.91;;;8.03;100.00
31005;BME280;17676;52.254;4.490;2023-03-14T08:47:27;99323.59;;;8.06;100.00
31005;BME280;17676;52.254;4.490;2023-03-14T08:49:55;99344.38;;;8.17;100.00
31005;BME280;17676;52.254;4.490;2023-03-14T08:52:21;99338.97;;;7.88;100.00
31005;BME280;17676;52.254;4.490;2023-03-14T08:54:48;99363.59;;;8.03;100.00
31005;BME280;17676;52.254;4.490;2023-03-14T08:57:14;99368.19;;;8.02;100.00
31005;BME280;17676;52.254;4.490;2023-03-14T08:59:39;99381.06;;;8.00;100.00
31005;BME280;17676;52.254;4.490;2023-03-14T09:02:05;99387.84;;;8.03;100.00
31005;BME280;17676;52.254;4.490;2023-03-14T09:04:32;99400.78;;;7.65;100.00
31005;BME280;17676;52.254;4.490;2023-03-14T09:06:58;99418.56;;;7.84;100.00
31005;BME280;17676;52.254;4.490;2023-03-14T09:09:25;99428.75;;;7.64;100.00
31005;BME280;17676;52.254;4.490;2023-03-14T09:11:52;99438.47;;;7.47;100.00
31005;BME280;17676;52.254;4.490;2023-03-14T09:14:18;99446.91;;;7.50;100.00
31005;BME280;17676;52.254;4.490;2023-03-14T09:16:43;99452.13;;;7.45;100.00
31005;BME280;17676;52.254;4.490;2023-03-14T09:19:10;99447.56;;;7.28;100.00
31005;BME280;17676;52.254;4.490;2023-03-14T09:21:35;99453.00;;;7.21;100.00
31005;BME280;17676;52.254;4.490;2023-03-14T09:24:02;99461.56;;;7.54;100.00
31005;BME280;17676;52.254;4.490;2023-03-14T09:26:29;99464.34;;;7.84;100.00
31005;BME280;17676;52.254;4.490;2023-03-14T09:28:55;99472.56;;;8.07;100.00
31005;BME280;17676;52.254;4.490;2023-03-14T09:31:20;99472.41;;;8.20;100.00
31005;BME280;17676;52.254;4.490;2023-03-14T09:33:46;99483.72;;;8.10;100.00
31005;BME280;17676;52.254;4.490;2023-03-14T09:36:12;99503.56;;;8.16;100.00
31005;BME280;17676;52.254;4.490;2023-03-14T09:38:38;99516.75;;;8.24;100.00
31005;BME280;17676;52.254;4.490;2023-03-14T09:41:16;99523.44;;;8.51;100.00
31005;BME280;17676;52.254;4.490;2023-03-14T09:43:44;99517.69;;;8.11;100.00
31005;BME280;17676;52.254;4.490;2023-03-14T09:46:11;99540.75;;;8.43;100.00
31005;BME280;17676;52.254;4.490;2023-03-14T09:48:38;99533.06;;;8.29;100.00
31005;BME280;17676;52.254;4.490;2023-03-14T09:51:11;99554.28;;;8.55;100.00
31005;BME280;17676;52.254;4.490;2023-03-14T09:53:43;99555.16;;;8.85;100.00
31005;BME280;17676;52.254;4.490;2023-03-14T09:56:24;99569.91;;;8.82;100.00
31005;BME280;17676;52.254;4.490;2023-03-14T09:58:56;99587.00;;;8.76;100.00
31005;BME280;17676;52.254;4.490;2023-03-14T10:01:29;99586.91;;;8.83;100.00
31005;BME280;17676;52.254;4.490;2023-03-14T10:03:57;99588.81;;;8.64;100.00
31005;BME280;17676;52.254;4.490;2023-03-14T10:06:26;99598.84;;;8.57;100.00
31005;BME280;17676;52.254;4.490;2023-03-14T10:08:53;99627.72;;;9.04;100.00
31005;BME280;17676;52.254;4.490;2023-03-14T10:11:19;99630.94;;;9.42;100.00
31005;BME280;17676;52.254;4.490;2023-03-14T10:14:07;99648.00;;;9.25;100.00
31005;BME280;17676;52.254;4.490;2023-03-14T10:16:35;99662.94;;;9.09;100.00
31005;BME280;17676;52.254;4.490;2023-03-14T10:19:04;99656.97;;;8.89;100.00
31005;BME280;17676;52.254;4.490;2023-03-14T10:21:35;99673.97;;;8.54;100.00
31005;BME280;17676;52.254;4.490;2023-03-14T10:24:19;99678.50;;;8.11;100.00
31005;BME280;17676;52.254;4.490;2023-03-14T10:26:49;99699.06;;;8.12;100.00
31005;BME280;17676;52.254;4.490;2023-03-14T10:29:15;99716.63;;;8.21;100.00
31005;BME280;17676;52.254;4.490;2023-03-14T10:31:50;99725.22;;;8.54;100.00
31005;BME280;17676;52.254;4.490;2023-03-14T10:34:25;99735.34;;;9.30;100.00
31005;BME280;17676;52.254;4.490;2023-03-14T10:37:17;99730.84;;;10.13;100.00
31005;BME280;17676;52.254;4.490;2023-03-14T10:39:48;99750.63;;;10.48;100.00
31005;BME280;17676;52.254;4.490;2023-03-14T10:42:27;99762.53;;;10.70;100.00
31005;BME280;17676;52.254;4.490;2023-03-14T10:45:05;99767.66;;;11.57;100.00
31005;BME280;17676;52.254;4.490;2023-03-14T10:47:33;99766.44;;;11.76;100.00
31005;BME280;17676;52.254;4.490;2023-03-14T10:50:22;99802.88;;;12.74;100.00
31005;BME280;17676;52.254;4.490;2023-03-14T10:52:49;99808.97;;;12.65;100.00
31005;BME280;17676;52.254;4.490;2023-03-14T10:55:16;99823.53;;;11.98;100.00
31005;BME280;17676;52.254;4.490;2023-03-14T10:57:43;99828.00;;;12.20;100.00
31005;BME280;17676;52.254;4.490;2023-03-14T11:00:20;99848.72;;;12.26;100.00
31005;BME280;17676;52.254;4.490;2023-03-14T11:08:20;99899.25;;;12.88;100.00
31005;BME280;17676;52.254;4.490;2023-03-14T11:10:53;99902.28;;;12.92;100.00
31005;BME280;17676;52.254;4.490;2023-03-14T11:18:54;99930.25;;;12.20;100.00
31005;BME280;17676;52.254;4.490;2023-03-14T11:29:38;99969.72;;;12.67;100.00
31005;BME280;17676;52.254;4.490;2023-03-14T11:32:13;99981.03;;;12.47;100.00
31005;BME280;17676;52.254;4.490;2023-03-14T11:34:52;99968.94;;;12.83;100.00
31005;BME280;17676;52.254;4.490;2023-03-14T11:37:34;100003.69;;;12.41;100.00
31005;BME280;17676;52.254;4.490;2023-03-14T11:40:06;99993.69;;;13.14;100.00
31005;BME280;17676;52.254;4.490;2023-03-14T11:42:35;100007.31;;;12.07;100.00
31005;BME280;17676;52.254;4.490;2023-03-14T11:45:01;100017.34;;;11.84;100.00
31005;BME280;17676;52.254;4.490;2023-03-14T11:47:34;100011.78;;;10.62;100.00
31005;BME280;17676;52.254;4.490;2023-03-14T11:50:17;100018.44;;;10.30;100.00
31005;BME280;17676;52.254;4.490;2023-03-14T11:55:34;100040.19;;;10.53;100.00
31005;BME280;17676;52.254;4.490;2023-03-14T11:58:31;100034.06;;;11.05;100.00
31005;BME280;17676;52.254;4.490;2023-03-14T12:01:05;100045.25;;;11.61;100.00
31005;BME280;17676;52.254;4.490;2023-03-14T12:03:40;100056.25;;;11.78;100.00
31005;BME280;17676;52.254;4.490;2023-03-14T12:08:46;100067.56;;;12.09;100.00
31005;BME280;17676;52.254;4.490;2023-03-14T12:11:41;100086.75;;;11.73;100.00
31005;BME280;17676;52.254;4.490;2023-03-14T12:16:58;100097.28;;;11.40;100.00
31005;BME280;17676;52.254;4.490;2023-03-14T12:19:31;100100.94;;;11.46;100.00
31005;BME280;17676;52.254;4.490;2023-03-14T12:22:21;100113.03;;;11.61;100.00
31005;BME280;17676;52.254;4.490;2023-03-14T12:24:53;100136.38;;;10.85;100.00
31005;BME280;17676;52.254;4.490;2023-03-14T12:30:30;100129.50;;;10.71;100.00
31005;BME280;17676;52.254;4.490;2023-03-14T12:35:39;100152.31;;;10.93;100.00
31005;BME280;17676;52.254;4.490;2023-03-14T12:38:13;100133.84;;;10.90;100.00
31005;BME280;17676;52.254;4.490;2023-03-14T12:43:29;100147.09;;;10.62;100.00
31005;BME280;17676;52.254;4.490;2023-03-14T12:46:26;100157.72;;;10.39;100.00
31005;BME280;17676;52.254;4.490;2023-03-14T12:51:42;100161.00;;;10.23;100.00
31005;BME280;17676;52.254;4.490;2023-03-14T12:54:28;100169.56;;;10.20;100.00
31005;BME280;17676;52.254;4.490;2023-03-14T12:57:20;100181.94;;;10.34;100.00
31005;BME280;17676;52.254;4.490;2023-03-14T13:02:27;100196.94;;;10.30;100.00
31005;BME280;17676;52.254;4.490;2023-03-14T13:13:01;100212.13;;;10.00;100.00
31005;BME280;17676;52.254;4.490;2023-03-14T13:15:29;100222.63;;;9.90;100.00
31005;BME280;17676;52.254;4.490;2023-03-14T13:18:03;100221.56;;;9.60;100.00
31005;BME280;17676;52.254;4.490;2023-03-14T13:23:22;100232.81;;;9.57;100.00
31005;BME280;17676;52.254;4.490;2023-03-14T13:25:48;100252.19;;;9.85;100.00
31005;BME280;17676;52.254;4.490;2023-03-14T13:28:14;100249.22;;;9.86;100.00
31005;BME280;17676;52.254;4.490;2023-03-14T13:30:46;100247.09;;;9.95;100.00
31005;BME280;17676;52.254;4.490;2023-03-14T13:33:22;100244.34;;;9.70;100.00
31005;BME280;17676;52.254;4.490;2023-03-14T13:36:00;100253.97;;;9.60;100.00
31005;BME280;17676;52.254;4.490;2023-03-14T13:38:30;100267.56;;;9.47;100.00
31005;BME280;17676;52.254;4.490;2023-03-14T13:41:07;100271.47;;;9.51;100.00
31005;BME280;17676;52.254;4.490;2023-03-14T13:43:36;100294.69;;;9.65;100.00
31005;BME280;17676;52.254;4.490;2023-03-14T13:46:22;100292.72;;;9.85;100.00
31005;BME280;17676;52.254;4.490;2023-03-14T13:48:57;100311.97;;;9.95;100.00
31005;BME280;17676;52.254;4.490;2023-03-14T13:51:24;100311.09;;;9.70;100.00
31005;BME280;17676;52.254;4.490;2023-03-14T13:53:54;100308.38;;;9.70;100.00
31005;BME280;17676;52.254;4.490;2023-03-14T13:56:21;100317.69;;;9.80;100.00
31005;BME280;17676;52.254;4.490;2023-03-14T13:58:48;100314.13;;;9.80;100.00